Airfield :
LOGIN :

Register | Disclaimer

   EN    FR    IT 

 










Legend :    VFR   Marginal VFR   IFR   Intensive IFR   Very Intensive IFR
Visi :
Ceiling :
>= 8 km
>= 3000ft
5 to 8 km
1000 to 3000 ft
1500m to 5 km
500 to 1000 ft
800 to 1500m
200 to 500 ft
< 800m
< 200 ft
Symbols :   Thunderstorms  Fog  Heavy snow  Heavy precipitations  Wind > 20 kt
SIGMETs :     Misc.  Thunderstorms  Icing  Turbulence  Mountain Waves  Volcanic Ashes






- Airport Elevation : 622 ft
- IATA code : BRS


EGGD - Bristol Int.

CURRENT METAR :
  • 121750Z AUTO 26006KT 9999 -RA //////TCU 08/07 Q1007

EXPIRED METARs :
  • 121720Z AUTO 27006KT 9000 -RA BKN041/// //////TCU 09/08 Q1007
  • 121650Z AUTO 25006KT 210V280 9999 -RA FEW029/// BKN038/// OVC047/// //////TCU 09/08 Q1007 RERA
  • 121620Z AUTO 18007KT 3100 +RA FEW021/// SCT028/// BKN035/// //////TCU 10/07 Q1007
  • 121550Z AUTO 20008KT 9999 FEW035 12/06 Q1007
  • 121520Z AUTO 17006KT 9999 NCD 13/05 Q1007

TAF TAF EGGD
Valid from the 12 at 18:00 until the 13 at 18:00 UTC


121658Z 1218/1318 VRB03KT 9999 SCT030
BECMG 1218/1221 02010KT
TEMPO 1218/1312 6000 RA BKN010
PROB40
TEMPO 1218/1309 2000 +RA BKN004
PROB40
TEMPO 1309/1312 BKN006
TEMPO 1312/1318 5000 SHRA BKN012
ATIS : +44 1275 473 666



MET'MAP, your aeronautical weather chart ! - Copyright ORBIFLY December 2007 - Disclaimer

ORBIFLY MET'MAP TEAM :

Programming & Development : Alexandra Zaïnal
Concept & original design : Baudouin d'Aumeries
Assistance for programming : Marc-Olivier Méhu
Technical & hardware support : Manuel Goepfert

Contact : metmap@orbifly.com




SOURCES & CREDITS :

   NOAA